Sunday, March 29, 2015, 5:21 AM EDT

KPTB, Petersburg, Dinwiddie County Airport

Location: Petersburg, VA, United States Lat: 37.183
Local Time: 5:21 AM EDT ( 9:21 GMT) Lon: -77.517
Time Zone: US/Eastern Elev: 193 ft

Show me the last for .
Show Decoded

2015-03-29 04:55 METAR KPTB 290855Z AUTO 34005KT 10SM CLR M02/M11 A3033 RMK AO2 T10201114 =
2015-03-29 04:35 METAR KPTB 290835Z AUTO 34004KT 10SM CLR M02/M11 A3032 RMK AO2 T10221112 =
2015-03-29 04:15 METAR KPTB 290815Z AUTO 36005KT 10SM CLR M02/M11 A3031 RMK AO2 T10201115 =
2015-03-29 03:55 METAR KPTB 290755Z AUTO 01005KT 10SM CLR M02/M11 A3031 RMK AO2 T10251107 =
2015-03-29 03:35 METAR KPTB 290735Z AUTO 30004KT 10SM CLR M02/M12 A3031 RMK AO2 T10181122 =
2015-03-29 03:15 METAR KPTB 290715Z AUTO 28004KT 10SM CLR M02/M12 A3030 RMK AO2 T10181121 =
2015-03-29 02:35 METAR KPTB 290635Z AUTO 28004KT 10SM CLR M02/M12 A3030 RMK AO2 T10171121 =
2015-03-29 02:15 METAR KPTB 290615Z AUTO 28004KT 10SM CLR M01/M12 A3029 RMK AO2 T10151123 =
2015-03-29 01:55 METAR KPTB 290555Z AUTO 28004KT 10SM CLR M02/M12 A3029 RMK AO2 T10161119 10023
                 21027 =
2015-03-29 01:35 METAR KPTB 290535Z AUTO 27005KT 10SM CLR M01/M12 A3029 RMK AO2 T10141118 =
2015-03-29 01:15 METAR KPTB 290515Z AUTO 28004KT 10SM CLR M01/M12 A3029 RMK AO2 T10111122 =
2015-03-29 00:55 METAR KPTB 290455Z AUTO 28005KT 10SM CLR M01/M12 A3029 RMK AO2 T10111123
                 400661027 =
2015-03-29 00:35 METAR KPTB 290435Z AUTO 29004KT 10SM CLR M01/M12 A3029 RMK AO2 T10111123 =
2015-03-28 23:35 METAR KPTB 290335Z AUTO 29003KT 10SM CLR M02/M09 A3028 RMK AO2 T10241094 =
2015-03-28 23:15 METAR KPTB 290315Z AUTO 00000KT 10SM CLR M01/M11 A3028 RMK AO2 T10111115 =
2015-03-28 22:55 METAR KPTB 290255Z AUTO 35004KT 10SM CLR 00/M14 A3027 RMK AO2 T10021136 =
2015-03-28 22:35 METAR KPTB 290235Z AUTO 34004KT 10SM CLR 00/M13 A3026 RMK AO2 T00001134 =
2015-03-28 22:15 METAR KPTB 290215Z AUTO 35005KT 10SM CLR 00/M14 A3025 RMK AO2 T00011136 =
2015-03-28 21:55 METAR KPTB 290155Z AUTO 34006KT 10SM CLR 01/M14 A3024 RMK AO2 T00051140 =
2015-03-28 21:35 METAR KPTB 290135Z AUTO 35004KT 10SM CLR 01/M13 A3024 RMK AO2 T00051135 =
2015-03-28 21:15 METAR KPTB 290115Z AUTO 34004KT 10SM CLR 01/M14 A3022 RMK AO2 T00101137 =
2015-03-28 20:55 METAR KPTB 290055Z AUTO 34008KT 10SM CLR 02/M14 A3021 RMK AO2 T00161142 =
2015-03-28 20:35 METAR KPTB 290035Z AUTO 34008G14KT 10SM CLR 02/M14 A3019 RMK AO2 T00191140 =
2015-03-28 20:15 METAR KPTB 290015Z AUTO 35008KT 10SM CLR 02/M13 A3018 RMK AO2 T00201126 =
2015-03-28 19:55 METAR KPTB 282355Z AUTO 35007KT 10SM CLR 02/M12 A3016 RMK AO2 T00231122 10066
                 20023 =
2015-03-28 19:35 METAR KPTB 282335Z AUTO 01009G15KT 10SM SCT080 03/M12 A3015 RMK AO2 T00271125 =
2015-03-28 19:15 METAR KPTB 282315Z AUTO 36010G15KT 10SM SCT080 04/M13 A3013 RMK AO2 T00351127 =
2015-03-28 18:35 METAR KPTB 282235Z AUTO 31010G17KT 10SM CLR 05/M15 A3010 RMK AO2 T00511146 =
2015-03-28 18:15 METAR KPTB 282215Z AUTO 31010G22KT 10SM CLR 05/M14 A3008 RMK AO2 T00531145 =
2015-03-28 17:55 METAR KPTB 282155Z AUTO 30008KT 10SM SCT075 05/M15 A3008 RMK AO2 T00521146 =
2015-03-28 17:35 METAR KPTB 282135Z AUTO 33013G18KT 10SM BKN075 06/M14 A3006 RMK AO2 T00581138 =
2015-03-28 17:15 METAR KPTB 282115Z AUTO 29008KT 10SM SCT075 06/M13 A3006 RMK AO2 T00561133 =
2015-03-28 16:55 METAR KPTB 282055Z AUTO 27010G19KT 10SM BKN075 06/M12 A3005 RMK AO2 T00621125 =
2015-03-28 16:35 METAR KPTB 282035Z AUTO 33011G14KT 10SM BKN065 06/M12 A3004 RMK AO2 T00561124 =
2015-03-28 16:15 METAR KPTB 282015Z AUTO 29010G16KT 10SM OVC065 06/M12 A3003 RMK AO2 T00571124 =
2015-03-28 15:55 METAR KPTB 281955Z AUTO 30008KT 10SM BKN065 05/M12 A3003 RMK AO2 T00531119 =
2015-03-28 15:35 METAR KPTB 281935Z AUTO 28011G20KT 10SM BKN065 05/M12 A3003 RMK AO2 T00521117 =
2015-03-28 15:15 METAR KPTB 281915Z AUTO 28007G14KT 10SM OVC070 05/M11 A3003 RMK AO2 T00491107 =
2015-03-28 14:55 METAR KPTB 281855Z AUTO 29008KT 10SM OVC060 04/M10 A3003 RMK AO2 T00391096 =
2015-03-28 14:35 METAR KPTB 281835Z AUTO 29007G17KT 10SM SCT048 OVC060 04/M09 A3003 RMK AO2
                 T00381090 =
2015-03-28 14:15 METAR KPTB 281815Z AUTO 31013G20KT 10SM SCT050 OVC075 04/M09 A3004 RMK AO2
                 T00401088 =
2015-03-28 13:55 METAR KPTB 281755Z AUTO 31010G16KT 10SM SCT046 SCT050 OVC070 04/M08 A3004 RMK
                 AO2 T00421081 10044 20020 =
2015-03-28 13:35 METAR KPTB 281735Z AUTO 29011G20KT 10SM SCT050 OVC060 04/M08 A3004 RMK AO2
                 T00381085 =
2015-03-28 13:15 METAR KPTB 281715Z AUTO 29007G15KT 10SM BKN048 OVC060 03/M08 A3004 RMK AO2
                 T00311084 =
2015-03-28 12:55 METAR KPTB 281655Z AUTO 30007KT 260V330 10SM BKN046 OVC060 03/M07 A3003 RMK AO2
                 T00321075 =
2015-03-28 12:35 METAR KPTB 281635Z AUTO 30009G14KT 10SM SCT046 BKN050 OVC060 03/M08 A3003 RMK
                 AO2 T00291076 =
2015-03-28 12:15 METAR KPTB 281615Z AUTO 31010KT 10SM SCT046 OVC055 03/M06 A3003 RMK AO2
                 T00281065 =
2015-03-28 11:55 METAR KPTB 281555Z AUTO 30007KT 10SM SCT036 BKN046 OVC055 02/M06 A3003 RMK AO2
                 T00241056 =
2015-03-28 11:35 METAR KPTB 281535Z AUTO 32011KT 10SM BKN038 BKN044 OVC050 03/M06 A3003 RMK AO2
                 T00261057 =
2015-03-28 11:15 METAR KPTB 281515Z AUTO 34011KT 10SM BKN038 BKN046 OVC055 03/M06 A3003 RMK AO2
                 T00291061 =
2015-03-28 10:55 METAR KPTB 281455Z AUTO 35005KT 10SM OVC047 02/M06 A3003 RMK AO2 T00231060 =
2015-03-28 10:35 METAR KPTB 281435Z AUTO 30011G14KT 10SM SCT036 OVC045 03/M06 A3003 RMK AO2
                 T00251057 =
2015-03-28 10:15 METAR KPTB 281415Z AUTO 35007KT 10SM OVC038 03/M06 A3002 RMK AO2 T00251056 =
2015-03-28 09:55 METAR KPTB 281355Z AUTO 33005KT 10SM OVC038 03/M06 A3001 RMK AO2 T00251057 =
2015-03-28 09:35 METAR KPTB 281335Z AUTO 35010KT 10SM BKN038 OVC050 03/M06 A3000 RMK AO2
                 T00271058 =
2015-03-28 09:15 METAR KPTB 281315Z AUTO 35008G15KT 10SM BKN042 BKN050 OVC060 02/M06 A3000 RMK
                 AO2 T00241061 =
2015-03-28 08:55 METAR KPTB 281255Z AUTO 33010G14KT 10SM SCT042 SCT049 OVC070 02/M06 A3000 RMK
                 AO2 T00231064 =
2015-03-28 08:35 METAR KPTB 281235Z AUTO 35007KT 10SM SCT060 OVC065 02/M07 A2999 RMK AO2
                 T00221068 =
2015-03-28 08:15 METAR KPTB 281215Z AUTO 36006KT 10SM OVC060 02/M06 A2998 RMK AO2 T00231063 =
2015-03-28 07:55 METAR KPTB 281155Z AUTO 36007KT 10SM OVC060 02/M05 A2997 RMK AO2 60001 70029
                 T00241051 10051 20022 =
2015-03-28 07:35 METAR KPTB 281135Z AUTO 34005KT 10SM SCT055 OVC070 02/M04 A2995 RMK AO2
                 T00231040 =
2015-03-28 07:15 METAR KPTB 281115Z AUTO 35007KT 10SM BKN050 OVC065 02/M04 A2994 RMK AO2
                 T00231044 =
2015-03-28 06:55 METAR KPTB 281055Z AUTO 34007KT 10SM SCT041 BKN050 OVC075 03/M04 A2994 RMK AO2
                 T00251036 =
2015-03-28 06:35 METAR KPTB 281035Z AUTO 36009G14KT 10SM SCT041 BKN050 OVC060 03/M04 A2993 RMK
                 AO2 T00301038 =
2015-03-28 06:15 METAR KPTB 281015Z AUTO 33009KT 10SM SCT060 OVC070 04/M04 A2991 RMK AO2
                 T00351037 =
2015-03-28 05:55 METAR KPTB 280955Z AUTO 34008KT 10SM SCT045 OVC060 04/M03 A2990 RMK AO2
                 T00351030 =
2015-03-28 05:35 METAR KPTB 280935Z AUTO 33007KT 10SM SCT044 OVC060 04/M03 A2989 RMK AO2
                 T00381027 =

Support USWX by starting your Amazon purchase here.